Niagara Falls International Airport
KIAG : rendu visible

Aérodrome :











RETROUVEZ-NOUS SUR...

 
LOGIN :

S'inscrire | Disclaimer

   EN    FR    IT 

 









Légende :    VFR   VFR Marginal   IFR   IFR Intensif   IFR Très Intensif
Visi : 
Plafond : 
>= 8 km
>= 3000ft
5 à 8 km
1000 à 3000 ft
1500m à 5 km
500 à 1000 ft
800 à 1500m
200 à 500 ft
< 800m
< 200 ft
Symboles :   Orages  Brouillard  Fortes neiges  Fortes précipitations  Vent > 20 kt







- Altitude de l'aérodrome : 589 ft
- Code IATA : IAG


KIAG - Niagara Falls International

DERNIER METAR :
  • 250353Z AUTO 04003KT 10SM CLR 14/11 A3029 RMK AO2 SLP258 T01440111

METARs EXPIRÉS :
  • 250253Z 08003KT 10SM CLR 15/11 A3029 RMK AO2 SLP259 T01500111 51008
  • 250153Z 11005KT 10SM CLR 15/11 A3029 RMK AO2 SLP258 T01500111

TAF KIAG
Valide du 25 à 03h jusqu'au 26 à 00h UTC


250248Z 2503/2524 06005KT P6SM SCT250
FM250400 VRB03KT P6SM FEW250
FM251900 09007KT P6SM SCT045
FM252300 08008KT P6SM FEW250
Pas de NOTAMs connus pour ce terrain.



MET'MAP, la Météo Aéronautique d'un coup d'oeil ! - Copyright ORBIFLY Décembre 2007 - Disclaimer

ORBIFLY MET'MAP TEAM :

Programmation & Développement : Alexandra Zaïnal
Conception & Développement : Baudouin d'Aumeries
Co-Programmation & Développement : Marc-Olivier Méhu
Soutien technique & logistique : Manuel Goepfert

Contact : metmap@orbifly.com




SOURCES & CREDITS :

   NOAA       Earth
Advisory